CST,Max TemperatureF,Mean TemperatureF,Min TemperatureF,Max Dew PointF,MeanDew PointF,Min DewpointF,Max Humidity, Mean Humidity, Min Humidity, Max Sea Level PressureIn, Mean Sea Level PressureIn, Min Sea Level PressureIn, Max VisibilityMiles, Mean VisibilityMiles, Min VisibilityMiles, Max Wind SpeedMPH, Mean Wind SpeedMPH, Max Gust SpeedMPH,PrecipitationIn, CloudCover, Events, WindDirDegrees
2011-12-1,63,45,27,40,35,27,100,68,36,30.32,30.23,30.15,10,10,10,9,2,14,0.00,1,,68
2011-12-2,64,55,45,45,42,39,82,65,48,30.37,30.31,30.25,10,10,10,9,4,22,T,5,Rain,57
2011-12-3,67,55,43,61,50,36,93,77,61,30.22,30.08,29.98,10,9,3,20,7,26,0.16,7,Rain,96
2011-12-4,53,48,43,52,47,41,100,96,92,30.14,30.09,30.05,10,8,2,12,3,17,0.78,8,Rain-Thunderstorm,322
2011-12-5,47,42,37,41,37,30,96,83,70,30.24,30.11,29.97,10,8,3,17,7,24,0.94,8,Rain-Thunderstorm,327
2011-12-6,37,33,29,32,29,21,89,79,69,30.29,30.24,30.20,10,10,6,12,5,15,T,8,Rain-Snow,294
2011-12-7,43,34,25,24,21,17,92,66,39,30.36,30.30,30.27,10,10,10,14,5,20,0.00,2,,243
2011-12-8,49,36,22,29,24,21,96,68,39,30.35,30.27,30.18,10,10,10,8,1,14,0.00,1,,77
2011-12-9,56,41,25,37,30,24,100,72,43,30.44,30.30,30.23,10,8,1,8,0,13,0.00,2,,55
2011-12-10,53,40,26,33,29,26,100,72,44,30.60,30.51,30.45,10,5,0,12,1,14,0.00,1,Fog,65
2011-12-11,50,37,24,31,26,23,100,68,36,30.51,30.45,30.34,10,6,0,12,3,16,0.00,2,Fog,58
2011-12-12,50,43,36,36,30,27,70,58,46,30.38,30.33,30.28,10,10,10,10,4,13,0.00,8,,51
2011-12-13,58,53,47,52,46,36,89,75,61,30.36,30.28,30.21,10,10,9,14,5,17,0.00,8,,52
2011-12-14,66,59,52,63,57,51,100,91,81,30.19,30.05,29.91,10,5,1,5,6,6,0.23,8,Rain-Thunderstorm,85
2011-12-15,59,52,45,58,53,44,100,97,93,30.22,30.10,29.97,10,4,0,8,4,12,0.40,8,Fog-Rain-Thunderstorm,337
2011-12-16,56,44,32,43,39,32,100,76,51,30.43,30.34,30.23,10,8,0,8,3,12,0.42,5,Fog-Rain,21
2011-12-17,57,42,27,38,31,27,100,69,38,30.49,30.43,30.38,10,4,0,8,1,12,0.00,1,Fog,195
2011-12-18,57,43,28,41,32,27,100,74,47,30.41,30.35,30.15,10,4,0,8,1,12,0.00,2,Fog,109
2011-12-19,63,53,43,54,47,38,100,80,59,30.14,29.95,29.85,10,8,2,5,6,6,0.56,6,Rain-Thunderstorm,65
2011-12-20,59,52,44,54,47,39,100,80,59,29.94,29.87,29.81,10,8,0,22,8,28,0.04,7,Fog-Rain,196
2011-12-21,48,44,40,39,37,35,89,77,65,30.04,29.97,29.92,10,10,10,13,5,16,0.00,6,,230
2011-12-22,55,46,36,45,41,36,100,86,71,30.22,30.09,29.95,10,7,0,9,1,12,T,5,Fog-Rain,39
2011-12-23,47,44,40,43,39,37,100,86,71,30.43,30.36,30.23,10,10,9,9,2,12,0.00,8,,25
2011-12-24,46,40,33,40,36,32,96,83,70,30.48,30.42,30.36,10,7,0,9,2,12,T,3,Fog-Rain,53
2011-12-25,57,50,42,41,37,30,89,63,36,30.41,30.36,30.28,10,10,10,8,0,26,0.00,7,,95
2011-12-26,47,45,42,43,40,31,100,85,70,30.26,30.08,29.97,10,9,2,20,4,25,0.30,8,Rain,253
2011-12-27,57,43,29,43,35,29,100,69,38,30.20,30.09,29.97,10,10,2,14,6,20,0.00,2,,239
2011-12-28,57,41,25,35,30,25,100,67,33,30.20,30.11,30.04,10,10,10,12,1,16,0.00,0,,151
2011-12-29,63,46,29,44,36,27,100,74,48,30.04,29.93,29.83,10,8,2,12,2,16,0.00,0,,165
2011-12-30,66,50,34,46,37,31,100,64,28,30.04,29.93,29.83,10,4,0,10,2,14,0.00,3,Fog,255
2011-12-31,68,49,29,55,42,29,100,73,46,30.07,29.97,29.86,10,6,0,15,2,23,0.00,1,Fog,131